Time;durP1;ratioP1;P1;durP2;ratioP2;P2;SDS_P1;SDS_P2;PMS_P1;PMS_P2;Temp;Humidity;BMP_temperature;BMP_pressure;BME280_temperature;BME280_humidity;BME280_pressure;Samples;Min_cycle;Max_cycle;Signal;HPM_P1;HPM_P2
2022/11/29 00:02:21;;;;;;;41.80;19.20;;;;;;;1.97;79.56;100857.54;126623;1278;98000;-76
2022/11/29 00:05:24;;;;;;;38.60;19.00;;;;;;;2.02;79.44;100854.46;126843;1271;98005;-75
2022/11/29 00:08:26;;;;;;;31.50;15.90;;;;;;;2.05;79.21;100855.00;126747;1287;98079;-75
2022/11/29 00:14:53;;;;;;;40.60;20.20;;;;;;;2.12;79.20;100849.87;126961;1277;107396;-74
2022/11/29 00:17:56;;;;;;;34.20;18.10;;;;;;;2.10;79.20;100847.31;126802;1272;98707;-74
2022/11/29 00:20:58;;;;;;;24.70;12.70;;;;;;;2.08;79.16;100849.16;126696;1278;98974;-75
2022/11/29 00:24:01;;;;;;;34.50;17.50;;;;;;;2.07;79.03;100847.69;126643;1294;98095;-73
2022/11/29 00:27:04;;;;;;;32.10;15.80;;;;;;;2.02;79.29;100845.52;126642;1288;99180;-74
2022/11/29 00:30:10;;;;;;;35.00;17.40;;;;;;;1.97;79.22;100848.19;126656;1288;107494;-75
2022/11/29 00:33:13;;;;;;;28.00;14.80;;;;;;;1.95;79.49;100845.83;126737;1280;106464;-75
2022/11/29 00:36:16;;;;;;;151.60;57.70;;;;;;;1.96;79.41;100843.67;126666;1281;98886;-75
2022/11/29 00:39:19;;;;;;;28.50;14.80;;;;;;;1.99;79.29;100842.14;126759;1288;107626;-76
2022/11/29 00:42:22;;;;;;;75.00;30.90;;;;;;;2.04;79.31;100838.52;126751;1280;99616;-75
2022/11/29 00:45:24;;;;;;;34.90;16.80;;;;;;;2.07;79.38;100834.32;126800;1280;98005;-76
2022/11/29 00:48:27;;;;;;;26.70;14.30;;;;;;;2.09;79.23;100830.88;126706;1280;99142;-74
2022/11/29 00:51:30;;;;;;;35.60;19.80;;;;;;;2.13;79.42;100830.11;126718;1295;97992;-75
2022/11/29 00:54:33;;;;;;;30.50;16.70;;;;;;;2.12;79.34;100827.89;126690;1280;99050;-76
2022/11/29 00:57:35;;;;;;;30.30;17.70;;;;;;;2.10;79.35;100827.65;126783;1280;99137;-76
2022/11/29 01:00:38;;;;;;;28.10;16.30;;;;;;;2.07;79.11;100828.52;126658;1281;98650;-76
2022/11/29 01:03:41;;;;;;;28.70;15.90;;;;;;;2.03;79.34;100830.69;126820;1282;98984;-76
2022/11/29 01:06:44;;;;;;;28.50;15.70;;;;;;;2.01;79.28;100828.85;126710;1274;98071;-75
2022/11/29 01:09:46;;;;;;;33.20;17.80;;;;;;;2.00;79.46;100825.39;126637;1281;98587;-75
2022/11/29 01:12:49;;;;;;;30.90;15.60;;;;;;;2.00;79.55;100820.52;126566;1274;99246;-75
2022/11/29 01:15:56;;;;;;;25.10;12.90;;;;;;;2.02;79.31;100820.04;126582;1281;98076;-75
2022/11/29 01:18:59;;;;;;;26.50;14.50;;;;;;;2.08;79.48;100822.34;126718;1288;98005;-76
2022/11/29 01:22:02;;;;;;;26.80;15.00;;;;;;;2.12;79.39;100820.36;126756;1278;99138;-75
2022/11/29 01:25:07;;;;;;;28.50;15.40;;;;;;;2.12;79.30;100817.00;126558;1284;117053;-75
2022/11/29 01:28:10;;;;;;;27.10;15.10;;;;;;;2.13;79.34;100815.21;126766;1278;97975;-75
2022/11/29 01:31:16;;;;;;;27.40;15.30;;;;;;;2.14;79.28;100812.73;126768;1281;99039;-75
2022/11/29 01:34:19;;;;;;;27.30;16.10;;;;;;;2.15;79.43;100813.70;126773;1280;97988;-75
2022/11/29 01:37:21;;;;;;;28.00;15.30;;;;;;;2.11;79.26;100809.36;126759;1281;98741;-76
2022/11/29 01:40:24;;;;;;;29.30;15.70;;;;;;;2.05;79.23;100807.06;126760;1281;99164;-75
2022/11/29 01:43:27;;;;;;;27.70;15.70;;;;;;;2.02;79.37;100809.71;126639;1281;98009;-74
2022/11/29 01:46:31;;;;;;;31.30;16.10;;;;;;;1.96;79.30;100808.10;126751;1281;98751;-75
2022/11/29 01:49:37;;;;;;;27.20;14.70;;;;;;;1.91;79.39;100804.48;127001;1278;98094;-75
2022/11/29 01:52:41;;;;;;;24.30;13.30;;;;;;;1.91;79.58;100804.66;126756;1274;98347;-74
2022/11/29 01:55:51;;;;;;;29.90;15.60;;;;;;;1.98;79.53;100805.02;126772;1277;98098;-77
2022/11/29 01:58:54;;;;;;;26.10;14.30;;;;;;;2.03;79.55;100804.75;126842;1280;99244;-75
2022/11/29 02:02:04;;;;;;;28.80;14.90;;;;;;;2.06;79.54;100800.71;126723;1278;98457;-74
2022/11/29 02:05:08;;;;;;;26.30;14.30;;;;;;;2.08;79.38;100804.08;126697;1288;98850;-75
2022/11/29 02:08:13;;;;;;;27.20;15.40;;;;;;;2.09;79.32;100802.45;126734;1288;97978;-75
2022/11/29 02:11:58;;;;;;;26.90;14.30;;;;;;;2.08;79.47;100801.82;126766;1282;98353;-76
2022/11/29 02:15:09;;;;;;;28.70;14.80;;;;;;;2.06;79.41;100804.56;126869;1278;98004;-76
2022/11/29 02:18:14;;;;;;;29.40;14.50;;;;;;;2.01;79.32;100804.83;126725;1279;99238;-76
2022/11/29 02:21:30;;;;;;;28.80;14.80;;;;;;;1.96;79.31;100803.19;126724;1278;98011;-75
2022/11/29 02:25:02;;;;;;;28.50;14.80;;;;;;;1.90;79.39;100801.55;126641;1280;97972;-75
2022/11/29 02:28:36;;;;;;;25.50;14.50;;;;;;;1.90;79.67;100804.70;126664;1280;99182;-76
2022/11/29 02:32:05;;;;;;;26.00;13.50;;;;;;;1.91;79.52;100803.09;126957;1281;98666;-75
2022/11/29 02:35:22;;;;;;;29.30;17.80;;;;;;;1.96;79.56;100805.77;126683;1279;99061;-75
2022/11/29 02:38:44;;;;;;;26.20;14.30;;;;;;;1.99;79.52;100811.42;126638;1289;99024;-76
2022/11/29 02:42:10;;;;;;;67.50;41.40;;;;;;;2.03;79.38;100810.70;126622;1273;99195;-74
2022/11/29 02:45:30;;;;;;;29.10;16.30;;;;;;;2.02;79.45;100810.74;126942;1278;98656;-75
2022/11/29 02:48:53;;;;;;;34.20;17.90;;;;;;;2.00;79.33;100809.09;126782;1274;99080;-76
2022/11/29 02:52:00;;;;;;;28.50;16.80;;;;;;;2.01;79.61;100812.53;126826;1280;98653;-75
2022/11/29 02:55:09;;;;;;;29.30;16.30;;;;;;;2.01;79.39;100813.80;126780;1274;98020;-76
2022/11/29 02:58:23;;;;;;;25.40;14.90;;;;;;;1.98;79.52;100820.29;126667;1281;98636;-75
2022/11/29 03:01:32;;;;;;;29.70;15.90;;;;;;;1.93;79.55;100818.74;126744;1288;98441;-78
2022/11/29 03:04:44;;;;;;;29.40;14.90;;;;;;;1.92;79.74;100820.05;126651;1290;97963;-75
2022/11/29 03:07:57;;;;;;;24.70;13.40;;;;;;;1.95;79.64;100820.94;126681;1274;99104;-75
2022/11/29 03:11:06;;;;;;;27.20;14.80;;;;;;;2.04;79.49;100820.65;126793;1280;99051;-75
2022/11/29 03:14:21;;;;;;;27.30;15.30;;;;;;;2.11;79.47;100819.56;126752;1295;99291;-74
2022/11/29 03:17:35;;;;;;;27.70;15.60;;;;;;;2.16;79.47;100822.27;126786;1280;98412;-75
2022/11/29 03:20:50;;;;;;;29.60;16.20;;;;;;;2.20;79.46;100822.57;127011;1281;98746;-75
2022/11/29 03:23:56;;;;;;;32.50;16.70;;;;;;;2.20;79.22;100825.02;126839;1281;99040;-74
2022/11/29 03:27:05;;;;;;;30.80;16.90;;;;;;;2.18;79.41;100824.43;126591;1288;98841;-76
2022/11/29 03:30:13;;;;;;;30.20;16.00;;;;;;;2.14;79.52;100826.38;126681;1288;99074;-75
2022/11/29 03:33:23;;;;;;;34.30;17.70;;;;;;;2.12;79.27;100830.55;126737;1280;98992;-75
2022/11/29 03:36:37;;;;;;;29.40;16.00;;;;;;;2.07;79.62;100831.02;126585;1288;98514;-74
2022/11/29 03:39:49;;;;;;;31.80;17.40;;;;;;;2.02;79.49;100832.70;126671;1287;98433;-73
2022/11/29 03:42:58;;;;;;;32.80;18.00;;;;;;;1.98;79.50;100832.02;126730;1294;99142;-72
2022/11/29 03:46:07;;;;;;;33.40;16.60;;;;;;;1.95;79.45;100834.63;126663;1280;98080;-74
2022/11/29 03:49:20;;;;;;;30.10;15.30;;;;;;;1.96;79.64;100840.20;126636;1288;99036;-76
2022/11/29 03:52:28;;;;;;;32.00;16.10;;;;;;;2.03;79.63;100843.19;126762;1281;98005;-74
2022/11/29 03:55:49;;;;;;;34.90;17.20;;;;;;;2.07;79.72;100847.14;126723;1278;98013;-74
2022/11/29 03:59:02;;;;;;;31.70;16.70;;;;;;;2.09;79.61;100848.44;126737;1280;98079;-75
2022/11/29 04:02:29;;;;;;;33.20;16.80;;;;;;;2.09;79.42;100847.75;126582;1281;98708;-75
2022/11/29 04:06:08;;;;;;;31.00;15.80;;;;;;;2.08;79.46;100854.98;127076;1278;98018;-75
2022/11/29 04:09:33;;;;;;;29.90;15.40;;;;;;;2.03;79.50;100851.21;126699;1294;98004;-76
2022/11/29 04:13:00;;;;;;;29.00;15.80;;;;;;;1.98;79.42;100855.20;126596;1281;99053;-76
2022/11/29 04:16:25;;;;;;;34.50;16.60;;;;;;;1.91;79.51;100858.02;126538;1281;99166;-76
2022/11/29 04:19:51;;;;;;;30.50;16.00;;;;;;;1.87;79.56;100855.55;126683;1297;99035;-75
2022/11/29 04:23:38;;;;;;;37.10;18.20;;;;;;;1.81;79.72;100856.81;126584;1288;99026;-77
2022/11/29 04:27:19;;;;;;;30.70;16.30;;;;;;;1.77;79.84;100863.66;126826;1280;98749;-76
2022/11/29 04:30:24;;;;;;;31.30;15.40;;;;;;;1.85;79.76;100867.63;126664;1278;98061;-74
2022/11/29 04:33:52;;;;;;;34.30;18.70;;;;;;;1.94;79.78;100867.30;126790;1288;99151;-76
2022/11/29 04:37:17;;;;;;;31.90;16.70;;;;;;;2.02;79.88;100865.69;126548;1278;98071;-76
2022/11/29 04:40:35;;;;;;;31.40;17.70;;;;;;;2.05;79.71;100869.19;126627;1288;98918;-77
2022/11/29 04:43:52;;;;;;;52.80;28.90;;;;;;;2.09;79.77;100866.88;126728;1294;98291;-75
2022/11/29 04:47:08;;;;;;;35.00;19.40;;;;;;;2.12;79.64;100868.65;126792;1281;98008;-75
2022/11/29 04:50:25;;;;;;;36.90;19.10;;;;;;;2.07;79.74;100867.64;126704;1270;99074;-76
2022/11/29 04:53:47;;;;;;;32.20;18.30;;;;;;;2.05;79.62;100873.08;126667;1287;98341;-76
2022/11/29 04:56:54;;;;;;;33.50;16.90;;;;;;;2.03;79.71;100870.17;126745;1288;99032;-75
2022/11/29 05:00:06;;;;;;;33.20;18.00;;;;;;;1.99;79.76;100874.43;126627;1279;98702;-75
2022/11/29 05:03:19;;;;;;;34.60;18.20;;;;;;;1.96;79.75;100872.66;126638;1280;98042;-75
2022/11/29 05:06:28;;;;;;;35.70;18.60;;;;;;;1.94;79.83;100875.23;126651;1278;98995;-76
2022/11/29 05:09:42;;;;;;;30.70;15.70;;;;;;;1.96;79.98;100874.41;126633;1280;98768;-76
2022/11/29 05:12:55;;;;;;;34.50;17.30;;;;;;;2.01;79.81;100882.24;126688;1281;99055;-76
2022/11/29 05:16:14;;;;;;;33.30;17.00;;;;;;;2.01;79.69;100882.95;126887;1274;98796;-76
2022/11/29 05:19:37;;;;;;;31.20;17.10;;;;;;;2.01;79.88;100887.32;126829;1302;98656;-75
2022/11/29 05:22:53;;;;;;;31.90;16.70;;;;;;;2.02;79.86;100891.84;126589;1281;99057;-75
2022/11/29 05:26:04;;;;;;;31.80;17.80;;;;;;;2.02;79.74;100891.83;126506;1280;98080;-75
2022/11/29 05:29:16;;;;;;;29.10;17.50;;;;;;;1.98;79.74;100899.57;126647;1287;98048;-75
2022/11/29 05:32:27;;;;;;;34.20;18.70;;;;;;;1.93;79.70;100901.77;126840;1294;98008;-76
2022/11/29 05:35:49;;;;;;;32.20;17.40;;;;;;;1.90;79.87;100901.93;126861;1279;97986;-76
2022/11/29 05:39:11;;;;;;;39.40;18.70;;;;;;;1.84;79.96;100909.93;126961;1287;99214;-76
2022/11/29 05:42:35;;;;;;;34.80;17.40;;;;;;;1.79;79.89;100914.48;126990;1288;99055;-76
2022/11/29 05:45:46;;;;;;;31.40;15.20;;;;;;;1.80;80.04;100914.41;126728;1271;98080;-76
2022/11/29 05:48:57;;;;;;;37.30;18.00;;;;;;;1.84;79.94;100922.39;126667;1288;97953;-76
2022/11/29 05:52:17;;;;;;;34.50;18.00;;;;;;;1.92;80.18;100924.43;126580;1287;99186;-76
2022/11/29 05:55:31;;;;;;;34.20;17.70;;;;;;;1.97;80.08;100928.39;126651;1287;98094;-76
2022/11/29 05:58:43;;;;;;;33.70;17.90;;;;;;;1.95;80.00;100931.28;126569;1274;97976;-76
2022/11/29 06:01:54;;;;;;;34.90;17.80;;;;;;;1.95;80.02;100935.35;126567;1294;97996;-75
2022/11/29 06:05:05;;;;;;;33.90;17.80;;;;;;;1.95;79.94;100936.57;126707;1280;98027;-76
2022/11/29 06:08:17;;;;;;;34.20;18.60;;;;;;;1.90;80.04;100937.69;126682;1295;97978;-75
2022/11/29 06:11:25;;;;;;;35.40;19.10;;;;;;;1.86;80.08;100939.71;126725;1280;98376;-76
2022/11/29 06:14:46;;;;;;;40.80;19.70;;;;;;;1.83;80.17;100943.69;126591;1274;98004;-76
2022/11/29 06:18:07;;;;;;;38.20;18.30;;;;;;;1.81;80.20;100946.79;126634;1279;99160;-76
2022/11/29 06:21:26;;;;;;;31.20;16.20;;;;;;;1.81;80.28;100960.98;126668;1274;98962;-76
2022/11/29 06:24:52;;;;;;;38.00;18.20;;;;;;;1.86;80.11;100961.60;126607;1281;99164;-76
2022/11/29 06:28:10;;;;;;;29.50;16.50;;;;;;;1.89;80.31;100962.84;126570;1288;98008;-75
2022/11/29 06:31:20;;;;;;;30.30;16.90;;;;;;;1.91;80.21;100971.84;126613;1294;98007;-76
2022/11/29 06:34:28;;;;;;;34.00;18.10;;;;;;;1.91;80.26;100973.28;126624;1281;99159;-76
2022/11/29 06:37:37;;;;;;;33.70;18.30;;;;;;;1.88;80.20;100971.14;126538;1281;98739;-76
2022/11/29 06:40:40;;;;;;;35.60;18.20;;;;;;;1.87;80.34;100976.27;126550;1280;99133;-76
2022/11/29 06:43:44;;;;;;;35.60;18.50;;;;;;;1.87;80.24;100976.12;126844;1288;97987;-74
2022/11/29 06:46:50;;;;;;;36.40;19.10;;;;;;;1.82;80.07;100977.77;126699;1280;99135;-74
2022/11/29 06:49:59;;;;;;;44.10;20.90;;;;;;;1.78;80.39;100976.43;126705;1288;97993;-73
2022/11/29 06:53:14;;;;;;;38.20;18.80;;;;;;;1.74;80.47;100979.59;126572;1281;101312;-78
2022/11/29 06:56:25;;;;;;;31.10;15.70;;;;;;;1.77;80.49;100982.92;126715;1281;98023;-72
2022/11/29 06:59:41;;;;;;;35.90;18.70;;;;;;;1.86;80.63;100982.48;126598;1282;98777;-73
2022/11/29 07:03:10;;;;;;;33.90;17.90;;;;;;;1.94;80.50;100988.88;126614;1277;99052;-73
2022/11/29 07:06:20;;;;;;;35.90;18.70;;;;;;;2.01;80.38;100985.06;126619;1280;99040;-71
2022/11/29 07:09:29;;;;;;;35.80;19.60;;;;;;;2.03;80.33;100991.96;126583;1281;98754;-73
2022/11/29 07:12:33;;;;;;;38.40;19.50;;;;;;;2.04;80.32;100994.35;126570;1288;97967;-73
2022/11/29 07:15:38;;;;;;;38.40;20.70;;;;;;;2.04;80.45;100989.27;126656;1277;98069;-72
2022/11/29 07:18:50;;;;;;;41.20;22.30;;;;;;;2.03;80.40;100992.84;126665;1284;97976;-72
2022/11/29 07:22:03;;;;;;;41.70;19.90;;;;;;;2.01;80.28;100994.03;126590;1293;97992;-72
2022/11/29 07:25:16;;;;;;;41.30;20.60;;;;;;;1.99;80.44;100995.72;126614;1280;99144;-73
2022/11/29 07:28:33;;;;;;;36.00;18.80;;;;;;;1.96;80.38;100995.29;126641;1288;97984;-72
2022/11/29 07:31:46;;;;;;;32.70;16.00;;;;;;;1.98;80.55;101000.82;126567;1288;98029;-73
2022/11/29 07:34:59;;;;;;;39.00;19.50;;;;;;;2.06;80.38;101001.27;126669;1287;99039;-73
2022/11/29 07:38:14;;;;;;;34.90;17.00;;;;;;;2.14;80.33;100994.38;126612;1288;98075;-72
2022/11/29 07:41:26;;;;;;;28.30;16.20;;;;;;;2.19;80.30;100999.18;126559;1281;99268;-73
2022/11/29 07:44:39;;;;;;;32.10;17.30;;;;;;;2.19;80.37;100997.60;126608;1294;98992;-72
2022/11/29 07:47:41;;;;;;;37.50;18.60;;;;;;;2.19;80.40;100996.77;126684;1288;97988;-73
2022/11/29 07:50:44;;;;;;;37.20;19.00;;;;;;;2.16;80.23;100999.55;126609;1281;98758;-74
2022/11/29 07:53:47;;;;;;;37.10;19.90;;;;;;;2.12;80.41;101003.61;126625;1287;98438;-73
2022/11/29 07:56:50;;;;;;;41.60;23.00;;;;;;;2.08;80.60;100999.95;126608;1274;98662;-72
2022/11/29 07:59:52;;;;;;;44.30;22.40;;;;;;;2.07;80.48;101001.06;126598;1281;99170;-70
2022/11/29 08:02:55;;;;;;;37.50;19.80;;;;;;;2.08;80.63;101002.91;126574;1279;98962;-72
2022/11/29 08:05:58;;;;;;;34.00;18.00;;;;;;;2.09;80.49;101002.90;126612;1277;98816;-72
2022/11/29 08:09:01;;;;;;;37.40;19.00;;;;;;;2.14;80.51;101003.11;126673;1278;98999;-73
2022/11/29 08:12:05;;;;;;;32.00;16.60;;;;;;;2.24;80.55;100999.45;126576;1274;98417;-73
2022/11/29 08:15:09;;;;;;;40.00;19.30;;;;;;;2.31;80.33;100998.56;126658;1280;99137;-72
2022/11/29 08:18:12;;;;;;;37.30;20.80;;;;;;;2.33;80.22;101002.48;126632;1279;99047;-72
2022/11/29 08:21:16;;;;;;;43.60;21.30;;;;;;;2.36;80.32;101000.41;126607;1279;98018;-72
2022/11/29 08:24:19;;;;;;;39.80;20.80;;;;;;;2.38;80.19;101000.27;126566;1288;98063;-73
2022/11/29 08:27:22;;;;;;;41.00;21.60;;;;;;;2.43;80.32;101002.14;126612;1281;98735;-73
2022/11/29 08:30:25;;;;;;;79.50;32.70;;;;;;;2.47;80.22;101007.55;126565;1285;99126;-71
2022/11/29 08:33:27;;;;;;;41.70;20.30;;;;;;;2.44;79.98;101004.73;126586;1281;98726;-73
2022/11/29 08:36:30;;;;;;;35.70;18.10;;;;;;;2.40;80.13;101005.78;126557;1287;98024;-73
2022/11/29 08:39:33;;;;;;;49.10;22.20;;;;;;;2.39;79.96;101009.70;126575;1278;99145;-74
2022/11/29 08:42:35;;;;;;;38.90;19.20;;;;;;;2.39;79.99;101010.23;126594;1280;98020;-73
2022/11/29 08:45:38;;;;;;;43.60;21.60;;;;;;;2.44;80.22;101010.83;126591;1278;98655;-72
2022/11/29 08:48:41;;;;;;;43.30;22.50;;;;;;;2.53;80.12;101009.68;126592;1279;98963;-73
2022/11/29 08:51:43;;;;;;;51.50;25.10;;;;;;;2.58;80.24;101011.70;126607;1279;99173;-73
2022/11/29 08:54:46;;;;;;;61.10;32.20;;;;;;;2.61;79.95;101007.30;126537;1287;97997;-73
2022/11/29 08:57:50;;;;;;;43.30;23.80;;;;;;;2.62;80.03;101009.88;126559;1281;99172;-74
2022/11/29 09:00:52;;;;;;;43.70;22.00;;;;;;;2.62;79.98;101012.85;126634;1287;99163;-72
2022/11/29 09:03:58;;;;;;;61.60;28.70;;;;;;;2.61;80.01;101017.33;126623;1282;98433;-72
2022/11/29 09:07:01;;;;;;;198.00;112.80;;;;;;;2.60;79.92;101014.05;126584;1280;98448;-73
2022/11/29 09:10:07;;;;;;;80.10;47.70;;;;;;;2.56;80.15;101016.02;126521;1288;98905;-73
2022/11/29 09:13:10;;;;;;;85.40;39.90;;;;;;;2.57;79.84;101014.71;126582;1279;99128;-72
2022/11/29 09:16:16;;;;;;;47.90;26.70;;;;;;;2.56;79.98;101018.46;126666;1287;99101;-72
2022/11/29 09:19:19;;;;;;;27.10;14.90;;;;;;;2.59;80.00;101014.60;126583;1288;98063;-72
2022/11/29 09:22:22;;;;;;;36.00;19.90;;;;;;;2.65;79.79;101014.98;126548;1288;99246;-74
2022/11/29 09:25:25;;;;;;;33.10;18.20;;;;;;;2.75;79.67;101015.88;126599;1288;98730;-73
2022/11/29 09:28:29;;;;;;;31.30;17.20;;;;;;;2.80;79.60;101015.40;126572;1279;98085;-72
2022/11/29 09:31:33;;;;;;;31.90;17.70;;;;;;;2.84;79.54;101012.20;126621;1282;97983;-73
2022/11/29 09:34:36;;;;;;;28.70;17.00;;;;;;;2.87;79.56;101015.02;126606;1287;99829;-73
2022/11/29 09:37:42;;;;;;;32.20;17.60;;;;;;;2.91;79.50;101014.13;126573;1280;98442;-73
2022/11/29 09:40:52;;;;;;;32.80;17.20;;;;;;;2.94;79.28;101014.66;126579;1287;99154;-72
2022/11/29 09:44:04;;;;;;;30.80;17.20;;;;;;;2.92;79.17;101011.08;126547;1282;98643;-73
2022/11/29 09:47:22;;;;;;;31.10;17.50;;;;;;;2.91;79.33;101017.11;126639;1286;98773;-72
2022/11/29 09:50:32;;;;;;;30.20;16.80;;;;;;;2.91;79.32;101008.46;126608;1277;97994;-73
2022/11/29 09:53:55;;;;;;;35.50;17.10;;;;;;;2.89;79.26;101005.63;126612;1286;99042;-73
2022/11/29 09:56:56;;;;;;;;;;;;;;;2.87;79.24;101004.70;126576;1277;97974;-72
2022/11/29 10:00:04;;;;;;;32.50;17.60;;;;;;;2.89;79.43;101006.48;126573;1272;97991;-73
2022/11/29 10:03:17;;;;;;;32.40;16.80;;;;;;;2.93;79.23;101006.62;126566;1282;98034;-73
2022/11/29 10:06:26;;;;;;;30.20;16.50;;;;;;;3.01;79.31;101008.44;126610;1289;99055;-72
2022/11/29 10:09:35;;;;;;;29.20;16.30;;;;;;;3.11;79.02;101008.60;126595;1288;98771;-73
2022/11/29 10:12:43;;;;;;;29.00;16.30;;;;;;;3.14;78.94;101004.20;126615;1281;98034;-73
2022/11/29 10:15:52;;;;;;;30.40;16.40;;;;;;;3.18;79.02;101004.17;126662;1274;99056;-73
2022/11/29 10:19:01;;;;;;;29.00;16.40;;;;;;;3.22;78.92;101007.66;126602;1277;98065;-72
2022/11/29 10:22:09;;;;;;;39.10;20.20;;;;;;;3.24;78.89;101008.95;126597;1282;99038;-72
2022/11/29 10:25:19;;;;;;;52.60;25.10;;;;;;;3.23;78.80;101005.64;126667;1277;98662;-73
2022/11/29 10:28:26;;;;;;;33.00;17.90;;;;;;;3.18;78.59;101006.48;126672;1278;98739;-73
2022/11/29 10:31:34;;;;;;;35.00;19.40;;;;;;;3.15;78.99;101004.82;126583;1281;98628;-73
2022/11/29 10:34:37;;;;;;;37.60;19.00;;;;;;;3.15;78.79;101006.23;126636;1293;99128;-72
2022/11/29 10:37:40;;;;;;;38.30;20.70;;;;;;;3.15;78.85;101006.59;126615;1288;99140;-73
2022/11/29 10:40:46;;;;;;;45.70;23.70;;;;;;;3.13;79.05;101004.25;126632;1280;97966;-73
2022/11/29 10:43:51;;;;;;;49.80;23.40;;;;;;;3.11;78.78;101004.19;126621;1288;97994;-73
2022/11/29 10:46:54;;;;;;;53.60;29.30;;;;;;;3.10;79.04;101000.73;126782;1280;98066;-72
2022/11/29 10:49:57;;;;;;;41.20;21.30;;;;;;;3.16;78.85;101006.38;126726;1281;98063;-71
2022/11/29 10:53:07;;;;;;;44.00;24.50;;;;;;;3.22;78.84;101007.27;126754;1277;98061;-73
2022/11/29 10:56:21;;;;;;;61.10;29.70;;;;;;;3.31;78.79;101010.41;126497;1282;98779;-72
2022/11/29 10:59:26;;;;;;;54.70;29.70;;;;;;;3.35;78.46;101013.21;126815;1288;98428;-72
2022/11/29 11:02:30;;;;;;;39.20;22.10;;;;;;;3.30;78.36;101007.17;126680;1281;99137;-72
2022/11/29 11:05:33;;;;;;;41.10;22.30;;;;;;;3.28;78.37;101010.81;126656;1294;98114;-72
2022/11/29 11:08:38;;;;;;;37.10;20.10;;;;;;;3.24;78.41;101006.83;126814;1287;98000;-72
2022/11/29 11:11:49;;;;;;;56.20;25.10;;;;;;;3.24;78.47;101012.80;126744;1282;98004;-72
2022/11/29 11:15:11;;;;;;;39.40;20.30;;;;;;;3.22;78.33;101008.85;126700;1277;98076;-72
2022/11/29 11:18:27;;;;;;;37.70;19.60;;;;;;;3.22;78.33;101007.43;126620;1281;98788;-73
2022/11/29 11:21:30;;;;;;;51.60;25.40;;;;;;;3.22;78.20;101005.85;126726;1281;98116;-71
2022/11/29 11:24:35;;;;;;;91.00;37.50;;;;;;;3.18;78.42;101008.36;126681;1277;97979;-73
2022/11/29 11:27:39;;;;;;;47.90;23.80;;;;;;;3.12;78.08;101011.34;126633;1288;98339;-71
2022/11/29 11:30:50;;;;;;;60.80;27.70;;;;;;;3.06;78.44;101012.71;126616;1285;99099;-73
2022/11/29 11:33:53;;;;;;;48.00;23.00;;;;;;;3.07;78.48;101014.80;126954;1279;99031;-72
2022/11/29 11:37:18;;;;;;;42.60;21.20;;;;;;;3.12;78.62;101019.04;126967;1277;97991;-73
2022/11/29 11:40:27;;;;;;;35.50;19.30;;;;;;;3.19;78.49;101019.44;126906;1277;99172;-74
2022/11/29 11:43:31;;;;;;;36.20;19.60;;;;;;;3.26;78.49;101022.90;126791;1281;98052;-71
2022/11/29 11:46:48;;;;;;;35.80;19.80;;;;;;;3.29;78.17;101022.34;126912;1282;98016;-72
2022/11/29 11:50:03;;;;;;;43.40;24.20;;;;;;;3.27;78.24;101021.73;126616;1286;98150;-73
2022/11/29 11:53:18;;;;;;;49.30;25.30;;;;;;;3.27;78.26;101025.46;126801;1288;97965;-73
2022/11/29 11:56:22;;;;;;;39.20;21.80;;;;;;;3.25;78.33;101027.48;126659;1281;98021;-73
2022/11/29 11:59:27;;;;;;;40.40;21.90;;;;;;;3.25;78.41;101026.30;126822;1288;98006;-71
2022/11/29 12:02:37;;;;;;;41.40;23.00;;;;;;;3.23;78.21;101030.09;126629;1282;98142;-71
2022/11/29 12:05:40;;;;;;;38.60;21.40;;;;;;;3.17;78.23;101031.98;126752;1280;97971;-71
2022/11/29 12:08:45;;;;;;;46.80;23.70;;;;;;;3.11;78.23;101030.73;126597;1279;98007;-73
2022/11/29 12:11:55;;;;;;;40.60;20.30;;;;;;;3.05;78.32;101031.24;126788;1288;98742;-73
2022/11/29 12:15:01;;;;;;;38.40;20.10;;;;;;;2.99;78.43;101033.52;126672;1282;99101;-73
2022/11/29 12:18:11;;;;;;;35.80;18.70;;;;;;;2.97;78.22;101033.84;126707;1282;98021;-74
2022/11/29 12:21:16;;;;;;;28.10;15.20;;;;;;;2.98;78.23;101033.59;126766;1282;98776;-73
2022/11/29 12:24:26;;;;;;;34.60;18.00;;;;;;;3.02;78.12;101035.99;126773;1285;99160;-74
2022/11/29 12:27:30;;;;;;;27.70;15.40;;;;;;;3.04;78.04;101035.16;126769;1277;98887;-73
2022/11/29 12:30:33;;;;;;;32.60;18.10;;;;;;;3.07;78.04;101031.50;126918;1285;98393;-73
2022/11/29 12:33:44;;;;;;;32.50;17.40;;;;;;;3.07;77.79;101036.08;126800;1293;98016;-74
2022/11/29 12:36:56;;;;;;;28.00;16.10;;;;;;;3.06;77.87;101040.52;127005;1279;98604;-74
2022/11/29 12:40:04;;;;;;;26.60;15.80;;;;;;;3.01;77.83;101041.48;126941;1277;98005;-74
2022/11/29 12:43:17;;;;;;;30.80;17.70;;;;;;;2.98;77.74;101042.55;126987;1285;97979;-73
2022/11/29 12:46:23;;;;;;;28.10;16.30;;;;;;;2.94;77.84;101042.02;126782;1277;97980;-73
2022/11/29 12:49:34;;;;;;;28.00;15.80;;;;;;;2.90;77.76;101043.49;126707;1277;97981;-73
2022/11/29 12:52:46;;;;;;;25.50;15.60;;;;;;;2.87;77.64;101042.27;126741;1288;97991;-74
2022/11/29 12:55:55;;;;;;;25.20;15.60;;;;;;;2.82;77.71;101046.21;126593;1282;97999;-74
2022/11/29 12:59:16;;;;;;;33.00;16.20;;;;;;;2.77;77.82;101047.05;126582;1296;97987;-73
2022/11/29 13:02:32;;;;;;;27.00;15.20;;;;;;;2.71;77.77;101053.66;126738;1289;98073;-74
2022/11/29 13:05:54;;;;;;;24.80;13.70;;;;;;;2.69;77.59;101052.88;126693;1283;98034;-73
2022/11/29 13:09:13;;;;;;;24.90;14.00;;;;;;;2.73;77.85;101055.15;126603;1282;98050;-73
2022/11/29 13:12:22;;;;;;;24.80;14.60;;;;;;;2.81;77.68;101055.45;126777;1285;98729;-73
2022/11/29 13:15:35;;;;;;;24.60;15.10;;;;;;;2.83;77.74;101054.98;126659;1296;99141;-73
2022/11/29 13:18:44;;;;;;;27.60;15.60;;;;;;;2.84;77.57;101059.50;126709;1279;99135;-74
2022/11/29 13:21:54;;;;;;;27.90;15.90;;;;;;;2.84;77.57;101058.79;126724;1287;99133;-73
2022/11/29 13:25:00;;;;;;;32.40;17.40;;;;;;;2.85;77.47;101060.13;126597;1286;233219;-72
2022/11/29 13:28:06;;;;;;;32.10;18.20;;;;;;;2.84;77.74;101060.71;126839;1285;99135;-73
2022/11/29 13:31:16;;;;;;;36.50;19.10;;;;;;;2.83;77.68;101068.17;126756;1285;98119;-72
2022/11/29 13:34:25;;;;;;;37.90;20.60;;;;;;;2.84;77.82;101068.12;126789;1287;99163;-74
2022/11/29 13:37:36;;;;;;;38.80;20.60;;;;;;;2.82;77.68;101068.91;126931;1287;98082;-73
2022/11/29 13:40:51;;;;;;;39.20;20.90;;;;;;;2.80;77.77;101067.77;126994;1289;98651;-74
2022/11/29 13:44:01;;;;;;;39.90;21.90;;;;;;;2.78;77.59;101072.30;126965;1284;97989;-74
2022/11/29 13:47:08;;;;;;;41.80;21.70;;;;;;;2.74;77.57;101075.11;127082;1282;98772;-74
2022/11/29 13:50:38;;;;;;;35.00;18.70;;;;;;;2.73;77.50;101079.05;126862;1287;99109;-73
2022/11/29 13:53:42;;;;;;;32.30;17.90;;;;;;;2.72;77.39;101076.79;126880;1285;97979;-74
2022/11/29 13:56:45;;;;;;;36.40;18.70;;;;;;;2.75;77.44;101076.65;127004;1277;98038;-74
2022/11/29 13:59:49;;;;;;;38.60;20.70;;;;;;;2.78;77.45;101080.89;127084;1286;98078;-74
2022/11/29 14:02:53;;;;;;;39.60;21.20;;;;;;;2.78;77.40;101079.47;127039;1286;99208;-73
2022/11/29 14:06:06;;;;;;;36.90;19.80;;;;;;;2.77;77.32;101079.00;126922;1287;98414;-74
2022/11/29 14:09:28;;;;;;;39.00;21.50;;;;;;;2.73;77.32;101081.46;126916;1285;98010;-73
2022/11/29 14:12:38;;;;;;;39.80;20.80;;;;;;;2.71;77.40;101080.89;126616;1277;98016;-74
2022/11/29 14:15:42;;;;;;;46.70;24.00;;;;;;;2.67;77.20;101081.48;126958;1287;98038;-74
2022/11/29 14:19:02;;;;;;;50.60;26.40;;;;;;;2.60;77.43;101079.73;126567;1285;98433;-73
2022/11/29 14:22:31;;;;;;;41.90;21.10;;;;;;;2.53;77.27;101081.33;126598;1287;99084;-74
2022/11/29 14:25:35;;;;;;;41.60;19.10;;;;;;;2.48;77.28;101083.69;127019;1278;98008;-74
2022/11/29 14:28:39;;;;;;;36.30;19.30;;;;;;;2.44;77.34;101084.44;126739;1280;98080;-74